Warren, VT

2:45 PM EDT on August 27, 2016 (GMT -0400)
Old Roxbury Rd | | Change Station

Elev 1870 ft 44.11 °N, 72.80 °W | Updated 8 minutes ago

Scattered Clouds
Scattered Clouds
75.7 °F
Feels Like 78 °F
N
2.0
Wind Variable Wind from North
Gusts 4.0 mph

Today
High -- | Low -- °F
--% Chance of Precip.
Yesterday
High -- | Low -- °F
Precip. -- in
Pressure 30.19 in
Visibility 10.0 miles
Clouds Scattered Clouds 3400 ft
Heat Index 78 °F
Dew Point 64 °F
Humidity 66%
Rainfall 0.00 in
Snow Depth Not available.
6:09 AM 7:35 PM
Waning Crescent, 22% visible
METAR K6B0 271835Z AUTO 31006KT 10SM SCT034 27/17 A3019 RMK AO2 T02740173
Pressure 30.19 in
Visibility 10.0 miles
Clouds Scattered Clouds 3400 ft
Heat Index 78 °F
Dew Point 64 °F
Humidity 66%
Rainfall 0.00 in
Snow Depth Not available.
6:09 AM 7:35 PM
Waning Crescent, 22% visible
METAR K6B0 271835Z AUTO 31006KT 10SM SCT034 27/17 A3019 RMK AO2 T02740173

10-Day Weather Forecast

Almanac

Astronomy

Aug. 27, 2016 Rise Set
Actual Time
Civil Twilight
Nautical Twilight
Astronomical Twilight
Moon
Length of Visible Light
Length of Day
Tomorrow will be .
, % of the Moon is Illuminated

Today's Extremes

State Highs State Lows

Community

WunderPhotos

Upload Photos

1,935,399 photos uploaded!

WunderBlog® & News

Nearby

Air Quality

  Air Quality AQ Index Pollutant
Not available.

Snow Depth

Station Depth Elevation

Earthquake Activity

City Distance Mag. Time & Date
Minimum magnitude displayed is 2.5.

Coastal Water Temperatures

Place Temperature

Stations

Nearby Weather Stations

Station Location Temp. Windchill Dew Point Humidity Wind Precip. Elev Updated Type
                   

Watches & Warnings

There are currently no watches in effect.